createdAt,value
2018-12-31T00:00:02.959Z,2.80
2018-12-31T00:00:52.919Z,2.80
2018-12-31T00:01:42.579Z,2.80
2018-12-31T00:02:28.386Z,2.80
2018-12-31T00:03:04.503Z,2.80
2018-12-31T00:03:40.403Z,2.80
2018-12-31T00:04:16.196Z,2.80
2018-12-31T00:04:51.920Z,2.80
2018-12-31T00:05:27.629Z,2.80
2018-12-31T00:06:03.383Z,2.80
2018-12-31T00:06:39.019Z,2.80
2018-12-31T00:07:14.774Z,2.80
2018-12-31T00:07:50.400Z,2.80
2018-12-31T00:08:26.307Z,2.80
2018-12-31T00:09:02.014Z,2.80
2018-12-31T00:09:37.376Z,2.80
2018-12-31T00:10:13.086Z,2.80
2018-12-31T00:10:48.447Z,2.70
2018-12-31T00:11:24.428Z,2.70
2018-12-31T00:12:00.348Z,2.70
2018-12-31T00:12:36.026Z,2.70
2018-12-31T00:13:11.875Z,2.70
2018-12-31T00:13:47.995Z,2.70
2018-12-31T00:14:23.687Z,2.70
2018-12-31T00:14:59.287Z,2.70
2018-12-31T00:15:34.807Z,2.70
2018-12-31T00:16:10.487Z,2.70
2018-12-31T00:16:46.175Z,2.70
2018-12-31T00:17:21.649Z,2.70
2018-12-31T00:17:57.235Z,2.70
2018-12-31T00:18:33.170Z,2.70
2018-12-31T00:19:08.886Z,2.70
2018-12-31T00:19:44.446Z,2.70
2018-12-31T00:20:19.926Z,2.70
2018-12-31T00:20:55.588Z,2.70
2018-12-31T00:21:31.106Z,2.70
2018-12-31T00:22:14.108Z,2.70
2018-12-31T00:22:49.826Z,2.70
2018-12-31T00:23:25.514Z,2.70
2018-12-31T00:24:01.175Z,2.70
2018-12-31T00:24:36.827Z,2.70
2018-12-31T00:25:12.375Z,2.70
2018-12-31T00:25:48.099Z,2.70
2018-12-31T00:26:23.562Z,2.70
2018-12-31T00:26:59.207Z,2.70
2018-12-31T00:27:34.747Z,2.70
2018-12-31T00:28:10.370Z,2.70
2018-12-31T00:28:46.155Z,2.70
2018-12-31T00:29:21.747Z,2.70
2018-12-31T00:29:57.535Z,2.70
2018-12-31T00:30:33.156Z,2.70
2018-12-31T00:31:08.587Z,2.70
2018-12-31T00:31:44.274Z,2.70
2018-12-31T00:32:20.467Z,2.70
2018-12-31T00:32:56.006Z,2.70
2018-12-31T00:33:31.646Z,2.70
2018-12-31T00:34:07.306Z,2.70
2018-12-31T00:34:43.026Z,2.70
2018-12-31T00:35:18.567Z,2.70
2018-12-31T00:35:54.175Z,2.70
2018-12-31T00:36:29.915Z,2.70
2018-12-31T00:37:05.615Z,2.70
2018-12-31T00:37:41.484Z,2.70
2018-12-31T00:38:17.123Z,2.70
2018-12-31T00:38:52.766Z,2.70
2018-12-31T00:39:28.524Z,2.70
2018-12-31T00:40:04.403Z,2.70
2018-12-31T00:40:40.063Z,2.70
2018-12-31T00:41:15.751Z,2.70
2018-12-31T00:41:51.543Z,2.70
2018-12-31T00:42:27.524Z,2.70
2018-12-31T00:43:03.143Z,2.70
2018-12-31T00:43:38.731Z,2.70
2018-12-31T00:44:14.344Z,2.70
2018-12-31T00:44:49.893Z,2.70
2018-12-31T00:45:25.631Z,2.70
2018-12-31T00:46:01.305Z,2.70
2018-12-31T00:46:37.023Z,2.70
2018-12-31T00:47:12.704Z,2.70
2018-12-31T00:47:48.334Z,2.60
2018-12-31T00:48:23.903Z,2.70
2018-12-31T00:48:59.483Z,2.70
2018-12-31T00:49:35.023Z,2.70
2018-12-31T00:50:10.706Z,2.60
2018-12-31T00:50:46.363Z,2.60
2018-12-31T00:51:22.104Z,2.60
2018-12-31T00:51:57.640Z,2.60
2018-12-31T00:52:33.323Z,2.60
2018-12-31T00:53:08.763Z,2.60
2018-12-31T00:53:44.403Z,2.60
2018-12-31T00:54:19.924Z,2.60
2018-12-31T00:54:55.383Z,2.60
2018-12-31T00:55:30.822Z,2.70
2018-12-31T00:56:06.464Z,2.60
2018-12-31T00:56:41.991Z,2.60
2018-12-31T00:57:17.831Z,2.60
2018-12-31T00:57:53.663Z,2.60
2018-12-31T00:58:29.243Z,2.60
2018-12-31T00:59:05.376Z,2.60
2018-12-31T00:59:41.108Z,2.60
2018-12-31T01:00:16.950Z,2.60
2018-12-31T01:00:52.842Z,2.60
2018-12-31T01:01:28.353Z,2.60
2018-12-31T01:02:04.142Z,2.60
2018-12-31T01:02:39.823Z,2.60
2018-12-31T01:03:15.535Z,2.60
2018-12-31T01:03:51.386Z,2.60
2018-12-31T01:04:27.183Z,2.60
2018-12-31T01:05:03.144Z,2.60
2018-12-31T01:05:38.696Z,2.60
2018-12-31T01:06:14.280Z,2.60
2018-12-31T01:06:50.381Z,2.60
2018-12-31T01:07:25.983Z,2.60
2018-12-31T01:08:01.743Z,2.60
2018-12-31T01:08:37.441Z,2.60
2018-12-31T01:09:13.064Z,2.60
2018-12-31T01:09:48.704Z,2.60
2018-12-31T01:10:24.364Z,2.60
2018-12-31T01:10:59.792Z,2.60
2018-12-31T01:11:35.324Z,2.60
2018-12-31T01:12:10.993Z,2.60
2018-12-31T01:12:46.604Z,2.60
2018-12-31T01:13:22.185Z,2.50
2018-12-31T01:13:57.911Z,2.50
2018-12-31T01:14:33.523Z,2.50
2018-12-31T01:15:09.243Z,2.60
2018-12-31T01:15:45.222Z,2.60
2018-12-31T01:16:20.842Z,2.60
2018-12-31T01:16:56.383Z,2.60
2018-12-31T01:17:31.962Z,2.50
2018-12-31T01:18:07.763Z,2.60
2018-12-31T01:18:43.662Z,2.60
2018-12-31T01:19:19.636Z,2.60
2018-12-31T01:19:55.640Z,2.50
2018-12-31T01:20:31.183Z,2.50
2018-12-31T01:21:06.815Z,2.50
2018-12-31T01:21:42.440Z,2.50
2018-12-31T01:22:18.191Z,2.50
2018-12-31T01:22:53.942Z,2.50
2018-12-31T01:23:29.559Z,2.50
2018-12-31T01:24:05.139Z,2.50
2018-12-31T01:24:40.759Z,2.50
2018-12-31T01:25:16.519Z,2.50
2018-12-31T01:25:52.258Z,2.50
2018-12-31T01:26:27.818Z,2.50
2018-12-31T01:27:03.363Z,2.50
2018-12-31T01:27:39.040Z,2.50
2018-12-31T01:28:14.740Z,2.50
2018-12-31T01:28:50.340Z,2.50
2018-12-31T01:29:25.838Z,2.50
2018-12-31T01:30:01.403Z,2.50
2018-12-31T01:30:37.078Z,2.50
2018-12-31T01:31:12.798Z,2.50
2018-12-31T01:31:48.438Z,2.50
2018-12-31T01:32:23.957Z,2.50
2018-12-31T01:32:59.519Z,2.40
2018-12-31T01:33:35.442Z,2.50
2018-12-31T01:34:11.380Z,2.50
2018-12-31T01:34:47.022Z,2.50
2018-12-31T01:35:23.049Z,2.40
2018-12-31T01:35:58.741Z,2.50
2018-12-31T01:36:34.541Z,2.50
2018-12-31T01:37:09.899Z,2.50
2018-12-31T01:37:45.480Z,2.40
2018-12-31T01:38:21.019Z,2.40
2018-12-31T01:38:56.506Z,2.40
2018-12-31T01:39:32.178Z,2.50
2018-12-31T01:40:08.021Z,2.40
2018-12-31T01:40:43.550Z,2.40
2018-12-31T01:41:18.909Z,2.50
2018-12-31T01:41:54.426Z,2.50
2018-12-31T01:42:30.315Z,2.50
2018-12-31T01:43:05.669Z,2.40
2018-12-31T01:43:41.105Z,2.40
2018-12-31T01:44:16.516Z,2.40
2018-12-31T01:44:51.806Z,2.40
2018-12-31T01:45:27.275Z,2.40
2018-12-31T01:46:03.646Z,2.40
2018-12-31T01:46:38.950Z,2.40
2018-12-31T01:47:14.427Z,2.40
2018-12-31T01:47:49.725Z,2.40
2018-12-31T01:48:25.005Z,2.40
2018-12-31T01:49:00.506Z,2.40
2018-12-31T01:49:35.907Z,2.40
2018-12-31T01:50:11.218Z,2.40
2018-12-31T01:50:46.426Z,2.40
2018-12-31T01:51:21.733Z,2.40
2018-12-31T01:51:57.053Z,2.40
2018-12-31T01:52:32.466Z,2.40
2018-12-31T01:53:07.985Z,2.50
2018-12-31T01:53:43.266Z,2.40
2018-12-31T01:54:18.526Z,2.50
2018-12-31T01:54:53.846Z,2.50
2018-12-31T01:55:29.354Z,2.50
2018-12-31T01:56:04.664Z,2.50
2018-12-31T01:56:40.110Z,2.50
2018-12-31T01:57:15.988Z,2.50
2018-12-31T01:57:51.348Z,2.50
2018-12-31T01:58:26.707Z,2.40
2018-12-31T01:59:02.169Z,2.50
2018-12-31T01:59:37.566Z,2.50
2018-12-31T02:00:13.025Z,2.40
2018-12-31T02:00:48.543Z,2.50
2018-12-31T02:01:23.836Z,2.50
2018-12-31T02:01:59.233Z,2.40
2018-12-31T02:02:34.555Z,2.40
2018-12-31T02:03:09.968Z,2.40
2018-12-31T02:03:45.328Z,2.50
2018-12-31T02:04:20.729Z,2.50
2018-12-31T02:04:58.950Z,2.50
2018-12-31T02:05:34.289Z,2.40
2018-12-31T02:06:09.608Z,2.50
2018-12-31T02:06:44.938Z,2.50
2018-12-31T02:07:20.628Z,2.40
2018-12-31T02:07:59.146Z,2.50
2018-12-31T02:08:34.449Z,2.40
2018-12-31T02:09:09.810Z,2.50
2018-12-31T02:09:45.149Z,2.50
2018-12-31T02:10:20.549Z,2.50
2018-12-31T02:10:55.887Z,2.50
2018-12-31T02:11:31.228Z,2.40
2018-12-31T02:12:06.787Z,2.50
2018-12-31T02:12:42.107Z,2.40
2018-12-31T02:13:17.807Z,2.40
2018-12-31T02:13:53.142Z,2.40
2018-12-31T02:14:28.465Z,2.40
2018-12-31T02:15:03.695Z,2.40
2018-12-31T02:15:38.888Z,2.40
2018-12-31T02:16:14.152Z,2.40
2018-12-31T02:16:49.512Z,2.40
2018-12-31T02:17:24.830Z,2.40
2018-12-31T02:18:00.213Z,2.40
2018-12-31T02:18:35.448Z,2.50
2018-12-31T02:19:10.773Z,2.50
2018-12-31T02:19:46.149Z,2.40
2018-12-31T02:20:21.448Z,2.50
2018-12-31T02:20:56.647Z,2.50
2018-12-31T02:21:32.408Z,2.50
2018-12-31T02:22:07.614Z,2.50
2018-12-31T02:22:42.948Z,2.50
2018-12-31T02:23:18.267Z,2.50
2018-12-31T02:23:53.645Z,2.50
2018-12-31T02:24:29.175Z,2.50
2018-12-31T02:25:04.669Z,2.50
2018-12-31T02:25:39.968Z,2.40
2018-12-31T02:26:15.388Z,2.50
2018-12-31T02:26:50.803Z,2.50
2018-12-31T02:27:26.124Z,2.50
2018-12-31T02:28:01.504Z,2.50
2018-12-31T02:28:36.964Z,2.50
2018-12-31T02:29:12.303Z,2.50
2018-12-31T02:29:47.663Z,2.50
2018-12-31T02:30:23.151Z,2.40
2018-12-31T02:30:59.653Z,2.40
2018-12-31T02:31:34.904Z,2.40
2018-12-31T02:32:10.244Z,2.50
2018-12-31T02:32:45.934Z,2.40
2018-12-31T02:33:21.451Z,2.40
2018-12-31T02:33:56.773Z,2.40
2018-12-31T02:34:32.466Z,2.40
2018-12-31T02:35:07.731Z,2.40
2018-12-31T02:35:42.923Z,2.50
2018-12-31T02:36:18.345Z,2.40
2018-12-31T02:36:53.645Z,2.40
2018-12-31T02:37:29.187Z,2.40
2018-12-31T02:38:04.564Z,2.40
2018-12-31T02:38:39.963Z,2.40
2018-12-31T02:39:15.247Z,2.40
2018-12-31T02:39:50.677Z,2.40
2018-12-31T02:40:26.199Z,2.40
2018-12-31T02:41:01.670Z,2.40
2018-12-31T02:41:37.470Z,2.40
2018-12-31T02:42:12.834Z,2.40
2018-12-31T02:42:48.548Z,2.40
2018-12-31T02:43:23.927Z,2.40
2018-12-31T02:43:59.268Z,2.40
2018-12-31T02:44:34.881Z,2.40
2018-12-31T02:45:10.421Z,2.40
2018-12-31T02:45:45.930Z,2.30
2018-12-31T02:46:21.309Z,2.40
2018-12-31T02:46:56.678Z,2.40
2018-12-31T02:47:31.870Z,2.40
2018-12-31T02:48:07.150Z,2.30
2018-12-31T02:48:42.648Z,2.30
2018-12-31T02:49:18.104Z,2.30
2018-12-31T02:49:54.371Z,2.30
2018-12-31T02:50:29.921Z,2.30
2018-12-31T02:51:05.466Z,2.30
2018-12-31T02:51:41.043Z,2.30
2018-12-31T02:52:16.764Z,2.30
2018-12-31T02:52:52.251Z,2.30
2018-12-31T02:53:28.344Z,2.30
2018-12-31T02:54:03.804Z,2.30
2018-12-31T02:54:39.260Z,2.30
2018-12-31T02:55:14.645Z,2.30
2018-12-31T02:55:50.277Z,2.30
2018-12-31T02:56:25.873Z,2.30
2018-12-31T02:57:01.449Z,2.30
2018-12-31T02:57:37.196Z,2.30
2018-12-31T02:58:12.750Z,2.30
2018-12-31T02:58:48.174Z,2.30
2018-12-31T02:59:23.733Z,2.30
2018-12-31T02:59:59.220Z,2.30
2018-12-31T03:00:35.031Z,2.30
2018-12-31T03:01:10.585Z,2.30
2018-12-31T03:01:46.309Z,2.30
2018-12-31T03:02:21.727Z,2.30
2018-12-31T03:02:57.237Z,2.30
2018-12-31T03:03:32.666Z,2.30
2018-12-31T03:04:08.139Z,2.30
2018-12-31T03:04:43.660Z,2.30
2018-12-31T03:05:19.197Z,2.30
2018-12-31T03:05:54.935Z,2.30
2018-12-31T03:06:30.512Z,2.30
2018-12-31T03:07:06.070Z,2.30
2018-12-31T03:07:41.648Z,2.30
2018-12-31T03:08:16.964Z,2.30
2018-12-31T03:08:52.306Z,2.30
2018-12-31T03:09:27.812Z,2.30
2018-12-31T03:10:03.265Z,2.30
2018-12-31T03:10:38.584Z,2.30
2018-12-31T03:11:14.049Z,2.30
2018-12-31T03:11:49.384Z,2.30
2018-12-31T03:12:24.689Z,2.30
2018-12-31T03:12:59.988Z,2.30
2018-12-31T03:13:35.449Z,2.30
2018-12-31T03:14:10.567Z,2.30
2018-12-31T03:14:45.991Z,2.30
2018-12-31T03:15:21.250Z,2.30
2018-12-31T03:15:56.584Z,2.30
2018-12-31T03:16:32.088Z,2.30
2018-12-31T03:17:07.468Z,2.30
2018-12-31T03:17:43.048Z,2.30
2018-12-31T03:18:18.643Z,2.30
2018-12-31T03:18:53.970Z,2.30
2018-12-31T03:19:29.344Z,2.30
2018-12-31T03:20:05.314Z,2.30
2018-12-31T03:20:40.717Z,2.30
2018-12-31T03:21:16.156Z,2.30
2018-12-31T03:21:51.786Z,2.20
2018-12-31T03:22:27.227Z,2.30
2018-12-31T03:23:02.652Z,2.30
2018-12-31T03:23:38.044Z,2.30
2018-12-31T03:24:13.378Z,2.30
2018-12-31T03:24:48.626Z,2.30
2018-12-31T03:25:24.054Z,2.30
2018-12-31T03:25:59.425Z,2.30
2018-12-31T03:26:35.030Z,2.30
2018-12-31T03:27:10.853Z,2.30
2018-12-31T03:27:46.393Z,2.30
2018-12-31T03:28:21.924Z,2.30
2018-12-31T03:28:57.184Z,2.30
2018-12-31T03:29:32.435Z,2.30
2018-12-31T03:30:08.255Z,2.30
2018-12-31T03:30:43.589Z,2.30
2018-12-31T03:31:19.047Z,2.30
2018-12-31T03:31:54.638Z,2.30
2018-12-31T03:32:30.169Z,2.30
2018-12-31T03:33:05.430Z,2.30
2018-12-31T03:33:40.774Z,2.30
2018-12-31T03:34:16.106Z,2.30
2018-12-31T03:34:51.643Z,2.30
2018-12-31T03:35:27.209Z,2.30
2018-12-31T03:36:02.764Z,2.30
2018-12-31T03:36:38.086Z,2.30
2018-12-31T03:37:13.624Z,2.30
2018-12-31T03:37:49.010Z,2.30
2018-12-31T03:38:24.271Z,2.30
2018-12-31T03:38:59.563Z,2.30
2018-12-31T03:39:35.070Z,2.30
2018-12-31T03:40:10.533Z,2.30
2018-12-31T03:40:45.958Z,2.40
2018-12-31T03:41:21.197Z,2.30
2018-12-31T03:41:56.827Z,2.30
2018-12-31T03:42:32.107Z,2.30
2018-12-31T03:43:07.489Z,2.30
2018-12-31T03:43:42.844Z,2.30
2018-12-31T03:44:18.184Z,2.30
2018-12-31T03:44:53.485Z,2.30
2018-12-31T03:45:29.032Z,2.40
2018-12-31T03:46:04.415Z,2.30
2018-12-31T03:46:39.865Z,2.30
2018-12-31T03:47:15.346Z,2.30
2018-12-31T03:47:50.775Z,2.30
2018-12-31T03:48:26.124Z,2.30
2018-12-31T03:49:01.552Z,2.30
2018-12-31T03:49:36.851Z,2.30
2018-12-31T03:50:12.269Z,2.30
2018-12-31T03:50:47.611Z,2.30
2018-12-31T03:51:22.988Z,2.30
2018-12-31T03:51:58.508Z,2.30
2018-12-31T03:52:33.752Z,2.30
2018-12-31T03:53:09.060Z,2.30
2018-12-31T03:53:44.507Z,2.30
2018-12-31T03:54:19.664Z,2.30
2018-12-31T03:54:55.067Z,2.30
2018-12-31T03:55:30.266Z,2.30
2018-12-31T03:56:05.547Z,2.30
2018-12-31T03:56:41.226Z,2.30
2018-12-31T03:57:16.514Z,2.30
2018-12-31T03:57:51.905Z,2.30
2018-12-31T03:58:27.306Z,2.30
2018-12-31T03:59:03.204Z,2.30
2018-12-31T03:59:38.504Z,2.30
2018-12-31T04:00:13.791Z,2.30
2018-12-31T04:00:49.127Z,2.30
2018-12-31T04:01:24.426Z,2.30
2018-12-31T04:01:59.749Z,2.30
2018-12-31T04:02:35.548Z,2.30
2018-12-31T04:03:10.953Z,2.30
2018-12-31T04:03:46.312Z,2.30
2018-12-31T04:04:21.686Z,2.30
2018-12-31T04:04:56.908Z,2.30
2018-12-31T04:05:32.149Z,2.30
2018-12-31T04:06:07.469Z,2.30
2018-12-31T04:06:42.787Z,2.30
2018-12-31T04:07:18.028Z,2.30
2018-12-31T04:07:53.617Z,2.20
2018-12-31T04:08:29.267Z,2.30
2018-12-31T04:09:05.927Z,2.30
2018-12-31T04:09:41.269Z,2.30
2018-12-31T04:10:16.945Z,2.30
2018-12-31T04:10:52.306Z,2.20
2018-12-31T04:11:27.710Z,2.30
2018-12-31T04:12:03.126Z,2.30
2018-12-31T04:12:38.607Z,2.30
2018-12-31T04:13:13.888Z,2.30
2018-12-31T04:13:49.286Z,2.30
2018-12-31T04:14:24.744Z,2.30
2018-12-31T04:14:59.967Z,2.30
2018-12-31T04:15:35.471Z,2.30
2018-12-31T04:16:10.853Z,2.30
2018-12-31T04:16:46.197Z,2.30
2018-12-31T04:17:21.526Z,2.30
2018-12-31T04:17:56.796Z,2.30
2018-12-31T04:18:32.028Z,2.30
2018-12-31T04:19:07.308Z,2.30
2018-12-31T04:19:42.648Z,2.30
2018-12-31T04:20:17.906Z,2.30
2018-12-31T04:20:53.272Z,2.30
2018-12-31T04:21:28.592Z,2.20
2018-12-31T04:22:03.953Z,2.20
2018-12-31T04:22:39.251Z,2.20
2018-12-31T04:23:14.704Z,2.30
2018-12-31T04:23:49.990Z,2.30
2018-12-31T04:24:25.244Z,2.30
2018-12-31T04:25:00.620Z,2.30
2018-12-31T04:25:36.093Z,2.20
2018-12-31T04:26:11.548Z,2.20
2018-12-31T04:26:46.948Z,2.20
2018-12-31T04:27:22.286Z,2.20
2018-12-31T04:27:57.668Z,2.30
2018-12-31T04:28:33.071Z,2.20
2018-12-31T04:29:08.375Z,2.30
2018-12-31T04:29:43.887Z,2.20
2018-12-31T04:30:19.364Z,2.20
2018-12-31T04:30:55.124Z,2.30
2018-12-31T04:31:30.449Z,2.20
2018-12-31T04:32:05.845Z,2.20
2018-12-31T04:32:41.149Z,2.20
2018-12-31T04:33:16.576Z,2.20
2018-12-31T04:33:52.059Z,2.20
2018-12-31T04:34:27.393Z,2.30
2018-12-31T04:35:02.933Z,2.20
2018-12-31T04:35:38.464Z,2.20
2018-12-31T04:36:13.952Z,2.20
2018-12-31T04:36:49.928Z,2.20
2018-12-31T04:37:25.549Z,2.20
2018-12-31T04:38:01.930Z,2.20
2018-12-31T04:38:37.587Z,2.20
2018-12-31T04:39:13.364Z,2.20
2018-12-31T04:39:49.045Z,2.20
2018-12-31T04:40:24.545Z,2.20
2018-12-31T04:41:00.103Z,2.20
2018-12-31T04:41:35.640Z,2.20
2018-12-31T04:42:11.657Z,2.20
2018-12-31T04:42:48.375Z,2.20
2018-12-31T04:43:28.851Z,2.20
2018-12-31T04:44:06.722Z,2.20
2018-12-31T04:44:42.325Z,2.20
2018-12-31T04:45:17.820Z,2.20
2018-12-31T04:45:53.804Z,2.20
2018-12-31T04:46:29.315Z,2.20
2018-12-31T04:47:04.880Z,2.20
2018-12-31T04:47:40.777Z,2.20
2018-12-31T04:48:16.207Z,2.20
2018-12-31T04:48:51.664Z,2.20
2018-12-31T04:49:27.143Z,2.20
2018-12-31T04:50:02.502Z,2.20
2018-12-31T04:50:37.863Z,2.20
2018-12-31T04:51:13.370Z,2.20
2018-12-31T04:51:48.903Z,2.20
2018-12-31T04:52:24.236Z,2.20
2018-12-31T04:53:00.267Z,2.20
2018-12-31T04:53:35.698Z,2.20
2018-12-31T04:54:11.394Z,2.20
2018-12-31T04:54:46.963Z,2.20
2018-12-31T04:55:22.508Z,2.20
2018-12-31T04:55:58.332Z,2.20
2018-12-31T04:56:33.784Z,2.20
2018-12-31T04:57:09.426Z,2.20
2018-12-31T04:57:45.123Z,2.20
2018-12-31T04:58:23.321Z,2.20
2018-12-31T04:58:57.881Z,2.20
2018-12-31T04:59:33.789Z,2.20
2018-12-31T05:00:09.513Z,2.20
2018-12-31T05:00:45.081Z,2.20
2018-12-31T05:01:20.499Z,2.20
2018-12-31T05:01:55.999Z,2.20
2018-12-31T05:02:31.452Z,2.20
2018-12-31T05:03:06.879Z,2.20
2018-12-31T05:03:42.517Z,2.20
2018-12-31T05:04:18.042Z,2.20
2018-12-31T05:04:53.461Z,2.20
2018-12-31T05:05:28.819Z,2.20
2018-12-31T05:06:04.301Z,2.10
2018-12-31T05:06:39.808Z,2.20
2018-12-31T05:07:15.301Z,2.20
2018-12-31T05:07:50.845Z,2.20
2018-12-31T05:08:26.402Z,2.10
2018-12-31T05:09:01.794Z,2.10
2018-12-31T05:09:37.235Z,2.20
2018-12-31T05:10:12.586Z,2.20
2018-12-31T05:10:48.506Z,2.10
2018-12-31T05:11:23.987Z,2.10
2018-12-31T05:11:59.477Z,2.10
2018-12-31T05:12:35.106Z,2.10
2018-12-31T05:13:10.430Z,2.20
2018-12-31T05:13:45.887Z,2.10
2018-12-31T05:14:21.331Z,2.20
2018-12-31T05:14:56.761Z,2.20
2018-12-31T05:15:32.134Z,2.20
2018-12-31T05:16:07.577Z,2.20
2018-12-31T05:16:43.067Z,2.10
2018-12-31T05:17:18.552Z,2.20
2018-12-31T05:17:54.599Z,2.20
2018-12-31T05:18:30.126Z,2.20
2018-12-31T05:19:05.675Z,2.20
2018-12-31T05:19:41.196Z,2.20
2018-12-31T05:20:16.520Z,2.20
2018-12-31T05:20:52.068Z,2.20
2018-12-31T05:21:27.537Z,2.20
2018-12-31T05:22:03.154Z,2.20
2018-12-31T05:22:38.584Z,2.20
2018-12-31T05:23:14.056Z,2.20
2018-12-31T05:23:49.427Z,2.20
2018-12-31T05:24:24.922Z,2.20
2018-12-31T05:25:00.393Z,2.20
2018-12-31T05:25:35.964Z,2.20
2018-12-31T05:26:11.444Z,2.20
2018-12-31T05:26:46.890Z,2.20
2018-12-31T05:27:22.466Z,2.20
2018-12-31T05:27:58.132Z,2.20
2018-12-31T05:28:33.993Z,2.20
2018-12-31T05:29:09.411Z,2.20
2018-12-31T05:29:44.937Z,2.20
2018-12-31T05:30:20.472Z,2.20
2018-12-31T05:30:56.002Z,2.20
2018-12-31T05:31:31.439Z,2.20
2018-12-31T05:32:06.879Z,2.20
2018-12-31T05:32:42.512Z,2.20
2018-12-31T05:33:18.012Z,2.20
2018-12-31T05:33:53.572Z,2.20
2018-12-31T05:34:29.106Z,2.20
2018-12-31T05:35:04.831Z,2.20
2018-12-31T05:35:40.338Z,2.20
2018-12-31T05:36:15.984Z,2.20
2018-12-31T05:36:51.567Z,2.20
2018-12-31T05:37:27.281Z,2.20
2018-12-31T05:38:02.764Z,2.20
2018-12-31T05:38:38.322Z,2.20
2018-12-31T05:39:13.861Z,2.30
2018-12-31T05:39:49.826Z,2.30
2018-12-31T05:40:25.583Z,2.30
2018-12-31T05:41:01.184Z,2.30
2018-12-31T05:41:36.544Z,2.30
2018-12-31T05:42:11.965Z,2.30
2018-12-31T05:42:47.713Z,2.30
2018-12-31T05:43:23.165Z,2.30
2018-12-31T05:43:58.575Z,2.30
2018-12-31T05:44:34.047Z,2.30
2018-12-31T05:45:09.392Z,2.30
2018-12-31T05:45:44.851Z,2.30
2018-12-31T05:46:20.195Z,2.20
2018-12-31T05:46:55.491Z,2.30
2018-12-31T05:47:30.921Z,2.30
2018-12-31T05:48:06.207Z,2.30
2018-12-31T05:48:41.778Z,2.30
2018-12-31T05:49:17.534Z,2.30
2018-12-31T05:49:53.520Z,2.30
2018-12-31T05:50:29.010Z,2.30
2018-12-31T05:51:04.704Z,2.30
2018-12-31T05:51:40.150Z,2.30
2018-12-31T05:52:15.622Z,2.30
2018-12-31T05:52:51.316Z,2.30
2018-12-31T05:53:27.930Z,2.30
2018-12-31T05:54:03.338Z,2.30
2018-12-31T05:54:39.029Z,2.30
2018-12-31T05:55:14.779Z,2.30
2018-12-31T05:55:50.763Z,2.30
2018-12-31T05:56:26.376Z,2.30
2018-12-31T05:57:01.892Z,2.30
2018-12-31T05:57:37.492Z,2.30
2018-12-31T05:58:13.001Z,2.30
2018-12-31T05:58:48.439Z,2.20
2018-12-31T05:59:23.792Z,2.30
2018-12-31T05:59:59.275Z,2.30
2018-12-31T06:00:36.127Z,2.30
2018-12-31T06:01:11.771Z,2.30
2018-12-31T06:01:46.974Z,2.30
2018-12-31T06:02:22.404Z,2.30
2018-12-31T06:02:58.291Z,2.30
2018-12-31T06:03:33.668Z,2.30
2018-12-31T06:04:09.290Z,2.30
2018-12-31T06:04:44.877Z,2.30
2018-12-31T06:05:20.193Z,2.30
2018-12-31T06:05:55.567Z,2.30
2018-12-31T06:06:30.828Z,2.30
2018-12-31T06:07:06.206Z,2.20
2018-12-31T06:07:41.556Z,2.30
2018-12-31T06:08:16.931Z,2.30
2018-12-31T06:08:52.310Z,2.20
2018-12-31T06:09:28.210Z,2.20
2018-12-31T06:10:03.528Z,2.20
2018-12-31T06:10:38.949Z,2.30
2018-12-31T06:11:14.191Z,2.20
2018-12-31T06:11:49.628Z,2.20
2018-12-31T06:12:25.047Z,2.20
2018-12-31T06:13:00.789Z,2.20
2018-12-31T06:13:36.210Z,2.20
2018-12-31T06:14:11.530Z,2.20
2018-12-31T06:14:47.048Z,2.20
2018-12-31T06:15:22.616Z,2.20
2018-12-31T06:15:58.393Z,2.20
2018-12-31T06:16:33.892Z,2.20
2018-12-31T06:17:09.212Z,2.20
2018-12-31T06:17:44.708Z,2.20
2018-12-31T06:18:19.966Z,2.20
2018-12-31T06:18:55.316Z,2.20
2018-12-31T06:19:30.891Z,2.20
2018-12-31T06:20:06.387Z,2.20
2018-12-31T06:20:41.744Z,2.20
2018-12-31T06:21:16.990Z,2.20
2018-12-31T06:21:52.434Z,2.20
2018-12-31T06:22:28.069Z,2.20
2018-12-31T06:23:03.790Z,2.20
2018-12-31T06:23:39.185Z,2.20
2018-12-31T06:24:14.465Z,2.20
2018-12-31T06:24:49.844Z,2.20
2018-12-31T06:25:25.109Z,2.20
2018-12-31T06:26:00.368Z,2.20
2018-12-31T06:26:35.691Z,2.20
2018-12-31T06:27:11.048Z,2.20
2018-12-31T06:27:46.330Z,2.20
2018-12-31T06:28:21.567Z,2.20
2018-12-31T06:28:57.049Z,2.20
2018-12-31T06:29:32.375Z,2.20
2018-12-31T06:30:07.958Z,2.20
2018-12-31T06:30:43.554Z,2.20
2018-12-31T06:31:18.936Z,2.20
2018-12-31T06:31:54.576Z,2.20
2018-12-31T06:32:29.889Z,2.20
2018-12-31T06:33:05.250Z,2.20
2018-12-31T06:33:40.586Z,2.20
2018-12-31T06:34:15.872Z,2.20
2018-12-31T06:34:51.347Z,2.20
2018-12-31T06:35:26.756Z,2.20
2018-12-31T06:36:02.047Z,2.20
2018-12-31T06:36:37.384Z,2.20
2018-12-31T06:37:12.628Z,2.20
2018-12-31T06:37:48.415Z,2.20
2018-12-31T06:38:23.929Z,2.20
2018-12-31T06:38:59.205Z,2.20
2018-12-31T06:39:34.601Z,2.20
2018-12-31T06:40:10.083Z,2.20
2018-12-31T06:40:45.439Z,2.20
2018-12-31T06:41:20.708Z,2.20
2018-12-31T06:41:56.053Z,2.20
2018-12-31T06:42:31.224Z,2.20
2018-12-31T06:43:06.811Z,2.20
2018-12-31T06:43:43.016Z,2.20
2018-12-31T06:44:18.755Z,2.20
2018-12-31T06:44:54.079Z,2.20
2018-12-31T06:45:29.516Z,2.20
2018-12-31T06:46:04.908Z,2.20
2018-12-31T06:46:40.411Z,2.20
2018-12-31T06:47:15.872Z,2.20
2018-12-31T06:47:51.391Z,2.20
2018-12-31T06:48:26.893Z,2.20
2018-12-31T06:49:02.270Z,2.20
2018-12-31T06:49:37.558Z,2.20
2018-12-31T06:50:13.006Z,2.20
2018-12-31T06:50:48.709Z,2.20
2018-12-31T06:51:24.171Z,2.20
2018-12-31T06:51:59.488Z,2.20
2018-12-31T06:52:34.909Z,2.20
2018-12-31T06:53:10.146Z,2.20
2018-12-31T06:53:45.507Z,2.20
2018-12-31T06:54:20.850Z,2.20
2018-12-31T06:54:56.152Z,2.20
2018-12-31T06:55:31.589Z,2.20
2018-12-31T06:56:06.945Z,2.20
2018-12-31T06:56:42.311Z,2.20
2018-12-31T06:57:18.018Z,2.20
2018-12-31T06:57:53.289Z,2.20
2018-12-31T06:58:28.737Z,2.20
2018-12-31T06:59:04.188Z,2.20
2018-12-31T06:59:39.471Z,2.20
2018-12-31T07:00:14.879Z,2.20
2018-12-31T07:00:50.207Z,2.20
2018-12-31T07:01:25.578Z,2.20
2018-12-31T07:02:00.871Z,2.20
2018-12-31T07:02:36.151Z,2.20
2018-12-31T07:03:11.550Z,2.20
2018-12-31T07:03:46.829Z,2.20
2018-12-31T07:04:22.170Z,2.20
2018-12-31T07:04:57.806Z,2.20
2018-12-31T07:05:33.493Z,2.20
2018-12-31T07:06:08.810Z,2.20
2018-12-31T07:06:44.127Z,2.10
2018-12-31T07:07:19.517Z,2.10
2018-12-31T07:07:54.869Z,2.10
2018-12-31T07:08:30.309Z,2.20
2018-12-31T07:09:07.266Z,2.20
2018-12-31T07:09:42.752Z,2.20
2018-12-31T07:10:18.154Z,2.20
2018-12-31T07:10:53.470Z,2.10
2018-12-31T07:11:28.735Z,2.20
2018-12-31T07:12:04.188Z,2.20
2018-12-31T07:12:39.789Z,2.20
2018-12-31T07:13:15.079Z,2.20
2018-12-31T07:13:50.313Z,2.20
2018-12-31T07:14:25.788Z,2.20
2018-12-31T07:15:01.377Z,2.20
2018-12-31T07:15:36.598Z,2.20
2018-12-31T07:16:12.075Z,2.20
2018-12-31T07:16:47.706Z,2.20
2018-12-31T07:17:23.213Z,2.20
2018-12-31T07:17:58.572Z,2.20
2018-12-31T07:18:34.272Z,2.20
2018-12-31T07:19:10.283Z,2.20
2018-12-31T07:19:45.643Z,2.20
2018-12-31T07:20:21.174Z,2.20
2018-12-31T07:20:56.831Z,2.20
2018-12-31T07:21:32.446Z,2.20
2018-12-31T07:22:07.806Z,2.20
2018-12-31T07:22:43.189Z,2.20
2018-12-31T07:23:18.577Z,2.20
2018-12-31T07:23:53.969Z,2.20
2018-12-31T07:24:29.393Z,2.20
2018-12-31T07:25:04.791Z,2.20
2018-12-31T07:25:40.267Z,2.20
2018-12-31T07:26:15.283Z,2.20
2018-12-31T07:26:50.742Z,2.20
2018-12-31T07:27:26.046Z,2.20
2018-12-31T07:28:01.364Z,2.20
2018-12-31T07:28:36.667Z,2.20
2018-12-31T07:29:11.855Z,2.20
2018-12-31T07:29:47.518Z,2.20
2018-12-31T07:30:22.751Z,2.20
2018-12-31T07:30:58.107Z,2.20
2018-12-31T07:31:32.951Z,2.20
2018-12-31T07:32:08.171Z,2.20
2018-12-31T07:32:43.674Z,2.20
2018-12-31T07:33:19.144Z,2.30
2018-12-31T07:33:54.525Z,2.20
2018-12-31T07:34:29.987Z,2.20
2018-12-31T07:35:05.326Z,2.20
2018-12-31T07:35:40.572Z,2.30
2018-12-31T07:36:15.930Z,2.30
2018-12-31T07:36:51.090Z,2.30
2018-12-31T07:37:26.427Z,2.30
2018-12-31T07:38:01.638Z,2.30
2018-12-31T07:38:36.847Z,2.30
2018-12-31T07:39:12.214Z,2.20
2018-12-31T07:39:47.509Z,2.20
2018-12-31T07:40:22.807Z,2.30
2018-12-31T07:40:58.528Z,2.30
2018-12-31T07:41:33.866Z,2.30
2018-12-31T07:42:08.794Z,2.30
2018-12-31T07:42:44.111Z,2.20
2018-12-31T07:43:19.393Z,2.30
2018-12-31T07:43:54.606Z,2.30
2018-12-31T07:44:29.571Z,2.20
2018-12-31T07:45:05.016Z,2.30
2018-12-31T07:45:40.386Z,2.20
2018-12-31T07:46:18.606Z,2.20
2018-12-31T07:46:53.944Z,2.20
2018-12-31T07:47:29.565Z,2.20
2018-12-31T07:48:04.827Z,2.20
2018-12-31T07:48:40.305Z,2.20
2018-12-31T07:49:15.594Z,2.20
2018-12-31T07:49:50.662Z,2.20
2018-12-31T07:50:26.051Z,2.30
2018-12-31T07:51:01.385Z,2.30
2018-12-31T07:51:36.624Z,2.30
2018-12-31T07:52:11.984Z,2.30
2018-12-31T07:52:47.515Z,2.30
2018-12-31T07:53:22.908Z,2.20